sensor_id;sensor_type;location;lat;lon;timestamp;pressure;altitude;pressure_sealevel;temperature;humidity
9077;BME280;4574;51.072;17.174;2023-04-25T00:01:32;99176.75;;;10.59;100.00
9077;BME280;4574;51.072;17.174;2023-04-25T00:04:03;99173.16;;;10.52;100.00
9077;BME280;4574;51.072;17.174;2023-04-25T00:06:35;99185.69;;;10.58;100.00
9077;BME280;4574;51.072;17.174;2023-04-25T00:09:04;99179.91;;;10.55;100.00
9077;BME280;4574;51.072;17.174;2023-04-25T00:11:36;99187.19;;;10.53;100.00
9077;BME280;4574;51.072;17.174;2023-04-25T00:14:05;99187.72;;;10.48;100.00
9077;BME280;4574;51.072;17.174;2023-04-25T00:16:33;99187.03;;;10.54;100.00
9077;BME280;4574;51.072;17.174;2023-04-25T00:19:02;99184.69;;;10.59;100.00
9077;BME280;4574;51.072;17.174;2023-04-25T00:21:31;99186.38;;;10.52;100.00
9077;BME280;4574;51.072;17.174;2023-04-25T00:24:01;99181.72;;;10.54;100.00
9077;BME280;4574;51.072;17.174;2023-04-25T00:26:30;99190.16;;;10.50;100.00
9077;BME280;4574;51.072;17.174;2023-04-25T00:28:58;99191.97;;;10.57;100.00
9077;BME280;4574;51.072;17.174;2023-04-25T00:31:27;99192.34;;;10.46;100.00
9077;BME280;4574;51.072;17.174;2023-04-25T00:33:56;99191.66;;;10.52;100.00
9077;BME280;4574;51.072;17.174;2023-04-25T00:36:25;99198.25;;;10.56;100.00
9077;BME280;4574;51.072;17.174;2023-04-25T00:38:54;99201.91;;;10.55;100.00
9077;BME280;4574;51.072;17.174;2023-04-25T00:41:25;99192.63;;;10.59;100.00
9077;BME280;4574;51.072;17.174;2023-04-25T00:43:54;99196.97;;;10.52;100.00
9077;BME280;4574;51.072;17.174;2023-04-25T00:46:23;99185.41;;;10.45;100.00
9077;BME280;4574;51.072;17.174;2023-04-25T00:48:52;99204.72;;;10.54;100.00
9077;BME280;4574;51.072;17.174;2023-04-25T00:51:21;99201.94;;;10.47;100.00
9077;BME280;4574;51.072;17.174;2023-04-25T00:53:50;99195.16;;;10.45;100.00
9077;BME280;4574;51.072;17.174;2023-04-25T00:56:19;99202.94;;;10.46;100.00
9077;BME280;4574;51.072;17.174;2023-04-25T00:58:52;99202.59;;;10.49;100.00
9077;BME280;4574;51.072;17.174;2023-04-25T01:01:21;99180.94;;;10.46;100.00
9077;BME280;4574;51.072;17.174;2023-04-25T01:03:50;99198.94;;;10.50;100.00
9077;BME280;4574;51.072;17.174;2023-04-25T01:06:18;99195.69;;;10.40;100.00
9077;BME280;4574;51.072;17.174;2023-04-25T01:08:47;99201.13;;;10.39;100.00
9077;BME280;4574;51.072;17.174;2023-04-25T01:11:16;99204.25;;;10.42;100.00
9077;BME280;4574;51.072;17.174;2023-04-25T01:13:45;99209.72;;;10.41;100.00
9077;BME280;4574;51.072;17.174;2023-04-25T01:16:16;99208.56;;;10.43;100.00
9077;BME280;4574;51.072;17.174;2023-04-25T01:18:45;99212.53;;;10.39;100.00
9077;BME280;4574;51.072;17.174;2023-04-25T01:21:16;99204.97;;;10.28;100.00
9077;BME280;4574;51.072;17.174;2023-04-25T01:23:45;99205.31;;;10.25;100.00
9077;BME280;4574;51.072;17.174;2023-04-25T01:26:15;99205.16;;;10.19;100.00
9077;BME280;4574;51.072;17.174;2023-04-25T01:28:44;99219.69;;;10.23;100.00
9077;BME280;4574;51.072;17.174;2023-04-25T01:31:13;99212.25;;;10.10;100.00
9077;BME280;4574;51.072;17.174;2023-04-25T01:33:46;99217.06;;;10.07;100.00
9077;BME280;4574;51.072;17.174;2023-04-25T01:36:17;99220.84;;;10.04;100.00
9077;BME280;4574;51.072;17.174;2023-04-25T01:38:46;99223.16;;;10.07;100.00
9077;BME280;4574;51.072;17.174;2023-04-25T01:41:15;99213.91;;;9.95;100.00
9077;BME280;4574;51.072;17.174;2023-04-25T01:43:45;99227.97;;;10.04;100.00
9077;BME280;4574;51.072;17.174;2023-04-25T01:46:14;99235.56;;;10.07;100.00
9077;BME280;4574;51.072;17.174;2023-04-25T01:48:43;99226.81;;;10.06;100.00
9077;BME280;4574;51.072;17.174;2023-04-25T01:51:12;99229.63;;;10.05;100.00
9077;BME280;4574;51.072;17.174;2023-04-25T01:53:42;99228.78;;;10.04;100.00
9077;BME280;4574;51.072;17.174;2023-04-25T01:56:11;99223.03;;;10.01;100.00
9077;BME280;4574;51.072;17.174;2023-04-25T01:58:40;99219.38;;;10.02;100.00
9077;BME280;4574;51.072;17.174;2023-04-25T02:01:08;99211.25;;;9.87;100.00
9077;BME280;4574;51.072;17.174;2023-04-25T02:03:37;99216.56;;;9.87;100.00
9077;BME280;4574;51.072;17.174;2023-04-25T02:06:06;99228.78;;;9.88;100.00
9077;BME280;4574;51.072;17.174;2023-04-25T02:08:35;99228.44;;;9.83;100.00
9077;BME280;4574;51.072;17.174;2023-04-25T02:11:05;99228.44;;;9.83;100.00
9077;BME280;4574;51.072;17.174;2023-04-25T02:13:34;99233.59;;;9.85;100.00
9077;BME280;4574;51.072;17.174;2023-04-25T02:16:03;99233.41;;;9.86;100.00
9077;BME280;4574;51.072;17.174;2023-04-25T02:18:31;99229.09;;;9.85;100.00
9077;BME280;4574;51.072;17.174;2023-04-25T02:21:00;99221.69;;;9.81;100.00
9077;BME280;4574;51.072;17.174;2023-04-25T02:23:29;99228.44;;;9.75;100.00
9077;BME280;4574;51.072;17.174;2023-04-25T02:25:58;99226.31;;;9.71;100.00
9077;BME280;4574;51.072;17.174;2023-04-25T02:28:28;99224.50;;;9.63;100.00
9077;BME280;4574;51.072;17.174;2023-04-25T02:30:57;99229.63;;;9.73;100.00
9077;BME280;4574;51.072;17.174;2023-04-25T02:33:26;99226.66;;;9.68;100.00
9077;BME280;4574;51.072;17.174;2023-04-25T02:35:54;99218.88;;;9.74;100.00
9077;BME280;4574;51.072;17.174;2023-04-25T02:38:23;99215.41;;;9.66;100.00
9077;BME280;4574;51.072;17.174;2023-04-25T02:40:51;99217.56;;;9.70;100.00
9077;BME280;4574;51.072;17.174;2023-04-25T02:43:20;99223.69;;;9.71;100.00
9077;BME280;4574;51.072;17.174;2023-04-25T02:45:50;99221.19;;;9.69;100.00
9077;BME280;4574;51.072;17.174;2023-04-25T02:48:19;99225.47;;;9.70;100.00
9077;BME280;4574;51.072;17.174;2023-04-25T02:50:48;99231.94;;;9.68;100.00
9077;BME280;4574;51.072;17.174;2023-04-25T02:53:16;99229.44;;;9.66;100.00
9077;BME280;4574;51.072;17.174;2023-04-25T02:55:45;99232.75;;;9.68;100.00
9077;BME280;4574;51.072;17.174;2023-04-25T02:58:13;99225.81;;;9.67;100.00
9077;BME280;4574;51.072;17.174;2023-04-25T03:00:42;99225.47;;;9.70;100.00
9077;BME280;4574;51.072;17.174;2023-04-25T03:03:12;99225.66;;;9.69;100.00
9077;BME280;4574;51.072;17.174;2023-04-25T03:05:41;99223.00;;;9.69;100.00
9077;BME280;4574;51.072;17.174;2023-04-25T03:08:10;99222.50;;;9.65;100.00
9077;BME280;4574;51.072;17.174;2023-04-25T03:10:39;99226.13;;;9.64;100.00
9077;BME280;4574;51.072;17.174;2023-04-25T03:13:09;99216.41;;;9.57;100.00
9077;BME280;4574;51.072;17.174;2023-04-25T03:15:39;99216.22;;;9.58;100.00
9077;BME280;4574;51.072;17.174;2023-04-25T03:18:07;99220.69;;;9.58;100.00
9077;BME280;4574;51.072;17.174;2023-04-25T03:20:37;99219.19;;;9.55;100.00
9077;BME280;4574;51.072;17.174;2023-04-25T03:23:07;99228.13;;;9.62;100.00
9077;BME280;4574;51.072;17.174;2023-04-25T03:25:36;99228.63;;;9.66;100.00
9077;BME280;4574;51.072;17.174;2023-04-25T03:28:04;99227.47;;;9.60;100.00
9077;BME280;4574;51.072;17.174;2023-04-25T03:30:33;99226.97;;;9.65;100.00
9077;BME280;4574;51.072;17.174;2023-04-25T03:33:01;99224.81;;;9.68;100.00
9077;BME280;4574;51.072;17.174;2023-04-25T03:35:30;99232.75;;;9.60;100.00
9077;BME280;4574;51.072;17.174;2023-04-25T03:38:00;99237.69;;;9.55;100.00
9077;BME280;4574;51.072;17.174;2023-04-25T03:40:29;99239.69;;;9.53;100.00
9077;BME280;4574;51.072;17.174;2023-04-25T03:42:58;99238.69;;;9.54;100.00
9077;BME280;4574;51.072;17.174;2023-04-25T03:45:26;99230.75;;;9.54;100.00
9077;BME280;4574;51.072;17.174;2023-04-25T03:47:55;99225.66;;;9.53;100.00
9077;BME280;4574;51.072;17.174;2023-04-25T03:50:24;99235.06;;;9.55;100.00
9077;BME280;4574;51.072;17.174;2023-04-25T03:52:52;99235.72;;;9.57;100.00
9077;BME280;4574;51.072;17.174;2023-04-25T03:55:22;99234.06;;;9.56;100.00
9077;BME280;4574;51.072;17.174;2023-04-25T03:57:51;99243.16;;;9.46;100.00
9077;BME280;4574;51.072;17.174;2023-04-25T04:00:19;99244.63;;;9.40;100.00
9077;BME280;4574;51.072;17.174;2023-04-25T04:02:48;99243.16;;;9.46;100.00
9077;BME280;4574;51.072;17.174;2023-04-25T04:05:17;99241.31;;;9.38;100.00
9077;BME280;4574;51.072;17.174;2023-04-25T04:07:46;99248.41;;;9.38;100.00
9077;BME280;4574;51.072;17.174;2023-04-25T04:10:15;99256.16;;;9.39;100.00
9077;BME280;4574;51.072;17.174;2023-04-25T04:12:45;99245.91;;;9.28;100.00
9077;BME280;4574;51.072;17.174;2023-04-25T04:15:14;99252.19;;;9.35;100.00
9077;BME280;4574;51.072;17.174;2023-04-25T04:17:43;99249.88;;;9.32;100.00
9077;BME280;4574;51.072;17.174;2023-04-25T04:20:14;99256.16;;;9.31;100.00
9077;BME280;4574;51.072;17.174;2023-04-25T04:22:42;99247.06;;;9.34;100.00
9077;BME280;4574;51.072;17.174;2023-04-25T04:25:11;99252.00;;;9.29;100.00
9077;BME280;4574;51.072;17.174;2023-04-25T04:27:39;99256.16;;;9.31;100.00
9077;BME280;4574;51.072;17.174;2023-04-25T04:30:10;99253.50;;;9.24;100.00
9077;BME280;4574;51.072;17.174;2023-04-25T04:32:39;99262.88;;;9.26;100.00
9077;BME280;4574;51.072;17.174;2023-04-25T04:35:08;99264.06;;;9.24;100.00
9077;BME280;4574;51.072;17.174;2023-04-25T04:37:38;99258.44;;;9.19;100.00
9077;BME280;4574;51.072;17.174;2023-04-25T04:40:07;99258.78;;;9.24;100.00
9077;BME280;4574;51.072;17.174;2023-04-25T04:42:37;99265.03;;;9.23;100.00
9077;BME280;4574;51.072;17.174;2023-04-25T04:45:06;99265.53;;;9.26;100.00
9077;BME280;4574;51.072;17.174;2023-04-25T04:47:37;99268.84;;;9.28;100.00
9077;BME280;4574;51.072;17.174;2023-04-25T04:50:07;99266.72;;;9.31;100.00
9077;BME280;4574;51.072;17.174;2023-04-25T04:52:37;99268.88;;;9.36;100.00
9077;BME280;4574;51.072;17.174;2023-04-25T04:55:06;99267.72;;;9.38;100.00
9077;BME280;4574;51.072;17.174;2023-04-25T04:57:35;99262.94;;;9.42;100.00
9077;BME280;4574;51.072;17.174;2023-04-25T05:00:06;99251.84;;;9.30;100.00
9077;BME280;4574;51.072;17.174;2023-04-25T05:02:39;99272.69;;;9.41;100.00
9077;BME280;4574;51.072;17.174;2023-04-25T05:05:08;99269.03;;;9.42;100.00
9077;BME280;4574;51.072;17.174;2023-04-25T05:07:37;99259.78;;;9.30;100.00
9077;BME280;4574;51.072;17.174;2023-04-25T05:10:07;99271.66;;;9.34;100.00
9077;BME280;4574;51.072;17.174;2023-04-25T05:12:35;99268.56;;;9.39;100.00
9077;BME280;4574;51.072;17.174;2023-04-25T05:15:05;99263.75;;;9.42;100.00
9077;BME280;4574;51.072;17.174;2023-04-25T05:17:34;99269.38;;;9.39;100.00
9077;BME280;4574;51.072;17.174;2023-04-25T05:20:05;99265.41;;;9.43;100.00
9077;BME280;4574;51.072;17.174;2023-04-25T05:22:36;99262.44;;;9.46;100.00
9077;BME280;4574;51.072;17.174;2023-04-25T05:25:05;99262.13;;;9.49;100.00
9077;BME280;4574;51.072;17.174;2023-04-25T05:27:34;99261.47;;;9.55;100.00
9077;BME280;4574;51.072;17.174;2023-04-25T05:30:03;99253.06;;;9.52;100.00
9077;BME280;4574;51.072;17.174;2023-04-25T05:32:32;99264.13;;;9.55;100.00
9077;BME280;4574;51.072;17.174;2023-04-25T05:35:03;99263.97;;;9.57;100.00
9077;BME280;4574;51.072;17.174;2023-04-25T05:37:33;99265.44;;;9.59;100.00
9077;BME280;4574;51.072;17.174;2023-04-25T05:40:02;99260.47;;;9.64;100.00
9077;BME280;4574;51.072;17.174;2023-04-25T05:42:33;99273.69;;;9.64;100.00
9077;BME280;4574;51.072;17.174;2023-04-25T05:45:02;99257.69;;;9.58;100.00
9077;BME280;4574;51.072;17.174;2023-04-25T05:47:31;99273.03;;;9.70;100.00
9077;BME280;4574;51.072;17.174;2023-04-25T05:50:00;99270.41;;;9.62;100.00
9077;BME280;4574;51.072;17.174;2023-04-25T05:52:30;99269.59;;;9.62;100.00
9077;BME280;4574;51.072;17.174;2023-04-25T05:54:59;99275.03;;;9.68;100.00
9077;BME280;4574;51.072;17.174;2023-04-25T05:57:28;99271.38;;;9.69;100.00
9077;BME280;4574;51.072;17.174;2023-04-25T05:59:56;99277.19;;;9.73;100.00
9077;BME280;4574;51.072;17.174;2023-04-25T06:02:25;99267.09;;;9.60;100.00
9077;BME280;4574;51.072;17.174;2023-04-25T06:04:54;99272.38;;;9.68;100.00
9077;BME280;4574;51.072;17.174;2023-04-25T06:07:23;99256.53;;;9.60;100.00
9077;BME280;4574;51.072;17.174;2023-04-25T06:09:53;99276.03;;;9.75;100.00
9077;BME280;4574;51.072;17.174;2023-04-25T06:12:22;99265.13;;;9.78;100.00
9077;BME280;4574;51.072;17.174;2023-04-25T06:14:50;99279.19;;;9.87;100.00
9077;BME280;4574;51.072;17.174;2023-04-25T06:17:19;99270.91;;;9.82;100.00
9077;BME280;4574;51.072;17.174;2023-04-25T06:19:48;99268.94;;;9.84;100.00
9077;BME280;4574;51.072;17.174;2023-04-25T06:22:16;99267.09;;;9.84;100.00
9077;BME280;4574;51.072;17.174;2023-04-25T06:24:45;99269.41;;;9.87;100.00
9077;BME280;4574;51.072;17.174;2023-04-25T06:27:15;99263.47;;;9.93;100.00
9077;BME280;4574;51.072;17.174;2023-04-25T06:29:43;99264.78;;;9.97;100.00
9077;BME280;4574;51.072;17.174;2023-04-25T06:32:12;99266.66;;;10.05;100.00
9077;BME280;4574;51.072;17.174;2023-04-25T06:34:41;99251.78;;;10.04;100.00
9077;BME280;4574;51.072;17.174;2023-04-25T06:37:10;99264.47;;;10.16;100.00
9077;BME280;4574;51.072;17.174;2023-04-25T06:39:38;99255.53;;;10.17;100.00
9077;BME280;4574;51.072;17.174;2023-04-25T06:42:07;99260.34;;;10.14;100.00
9077;BME280;4574;51.072;17.174;2023-04-25T06:44:37;99258.38;;;10.16;100.00
9077;BME280;4574;51.072;17.174;2023-04-25T06:47:06;99251.91;;;10.18;100.00
9077;BME280;4574;51.072;17.174;2023-04-25T06:49:35;99265.97;;;10.27;100.00
9077;BME280;4574;51.072;17.174;2023-04-25T06:52:03;99260.50;;;10.36;100.00
9077;BME280;4574;51.072;17.174;2023-04-25T06:54:32;99261.13;;;10.46;100.00
9077;BME280;4574;51.072;17.174;2023-04-25T06:57:01;99262.09;;;10.53;100.00
9077;BME280;4574;51.072;17.174;2023-04-25T06:59:29;99248.69;;;10.55;100.00
9077;BME280;4574;51.072;17.174;2023-04-25T07:01:59;99252.31;;;10.62;100.00
9077;BME280;4574;51.072;17.174;2023-04-25T07:04:28;99251.47;;;10.69;100.00
9077;BME280;4574;51.072;17.174;2023-04-25T07:06:57;99251.13;;;10.72;100.00
9077;BME280;4574;51.072;17.174;2023-04-25T07:09:28;99255.88;;;10.84;100.00
9077;BME280;4574;51.072;17.174;2023-04-25T07:11:57;99252.38;;;10.92;100.00
9077;BME280;4574;51.072;17.174;2023-04-25T07:14:26;99248.69;;;11.31;100.00
9077;BME280;4574;51.072;17.174;2023-04-25T07:16:55;99250.22;;;11.26;99.98
9077;BME280;4574;51.072;17.174;2023-04-25T07:19:26;99248.28;;;11.12;97.85
9077;BME280;4574;51.072;17.174;2023-04-25T07:21:57;99255.44;;;11.11;97.15
9077;BME280;4574;51.072;17.174;2023-04-25T07:24:25;99254.28;;;11.06;96.10
9077;BME280;4574;51.072;17.174;2023-04-25T07:26:54;99252.28;;;11.08;97.38
9077;BME280;4574;51.072;17.174;2023-04-25T07:29:23;99245.94;;;11.17;97.04
9077;BME280;4574;51.072;17.174;2023-04-25T07:31:54;99233.72;;;11.16;97.55
9077;BME280;4574;51.072;17.174;2023-04-25T07:34:23;99247.22;;;11.29;95.05
9077;BME280;4574;51.072;17.174;2023-04-25T07:36:53;99257.41;;;11.40;97.33
9077;BME280;4574;51.072;17.174;2023-04-25T07:39:22;99256.53;;;11.47;96.29
9077;BME280;4574;51.072;17.174;2023-04-25T07:41:50;99258.34;;;11.55;94.91
9077;BME280;4574;51.072;17.174;2023-04-25T07:44:21;99247.56;;;11.56;94.71
9077;BME280;4574;51.072;17.174;2023-04-25T07:46:50;99251.31;;;11.62;95.05
9077;BME280;4574;51.072;17.174;2023-04-25T07:49:18;99251.69;;;11.59;94.68
9077;BME280;4574;51.072;17.174;2023-04-25T07:51:47;99249.03;;;11.59;92.87
9077;BME280;4574;51.072;17.174;2023-04-25T07:54:17;99257.22;;;11.72;99.70
9077;BME280;4574;51.072;17.174;2023-04-25T07:56:45;99250.09;;;12.60;100.00
9077;BME280;4574;51.072;17.174;2023-04-25T07:59:19;99256.03;;;12.48;95.18
9077;BME280;4574;51.072;17.174;2023-04-25T08:01:48;99254.63;;;12.08;93.10
9077;BME280;4574;51.072;17.174;2023-04-25T08:04:17;99253.19;;;11.98;93.38
9077;BME280;4574;51.072;17.174;2023-04-25T08:06:46;99260.22;;;11.91;93.70
9077;BME280;4574;51.072;17.174;2023-04-25T08:09:17;99249.56;;;11.77;92.62
9077;BME280;4574;51.072;17.174;2023-04-25T08:11:47;99260.00;;;11.78;93.70
9077;BME280;4574;51.072;17.174;2023-04-25T08:14:15;99255.06;;;11.90;94.10
9077;BME280;4574;51.072;17.174;2023-04-25T08:16:44;99259.69;;;11.96;93.11
9077;BME280;4574;51.072;17.174;2023-04-25T08:19:13;99256.78;;;12.05;94.05
9077;BME280;4574;51.072;17.174;2023-04-25T08:21:42;99256.25;;;12.09;92.44
9077;BME280;4574;51.072;17.174;2023-04-25T08:24:11;99251.66;;;12.03;91.66
9077;BME280;4574;51.072;17.174;2023-04-25T08:26:41;99277.47;;;12.09;93.70
9077;BME280;4574;51.072;17.174;2023-04-25T08:29:10;99248.44;;;11.94;93.51
9077;BME280;4574;51.072;17.174;2023-04-25T08:31:39;99269.25;;;12.04;93.71
9077;BME280;4574;51.072;17.174;2023-04-25T08:34:09;99269.69;;;12.08;94.55
9077;BME280;4574;51.072;17.174;2023-04-25T08:36:38;99271.47;;;12.15;94.29
9077;BME280;4574;51.072;17.174;2023-04-25T08:39:07;99263.03;;;12.12;95.59
9077;BME280;4574;51.072;17.174;2023-04-25T08:41:36;99273.81;;;12.10;95.97
9077;BME280;4574;51.072;17.174;2023-04-25T08:44:08;99267.81;;;11.94;95.98
9077;BME280;4574;51.072;17.174;2023-04-25T08:46:39;99275.06;;;12.00;96.75
9077;BME280;4574;51.072;17.174;2023-04-25T08:49:08;99277.47;;;12.09;97.52
9077;BME280;4574;51.072;17.174;2023-04-25T08:51:45;99272.19;;;12.09;97.25
9077;BME280;4574;51.072;17.174;2023-04-25T08:54:17;99272.75;;;12.19;97.33
9077;BME280;4574;51.072;17.174;2023-04-25T08:57:03;99271.03;;;12.26;97.54
9077;BME280;4574;51.072;17.174;2023-04-25T08:59:33;99280.00;;;12.40;96.71
9077;BME280;4574;51.072;17.174;2023-04-25T09:02:05;99284.59;;;12.46;97.18
9077;BME280;4574;51.072;17.174;2023-04-25T09:04:34;99280.03;;;12.54;97.62
9077;BME280;4574;51.072;17.174;2023-04-25T09:07:02;99289.28;;;12.58;96.96
9077;BME280;4574;51.072;17.174;2023-04-25T09:09:31;99282.31;;;12.57;96.46
9077;BME280;4574;51.072;17.174;2023-04-25T09:12:00;99276.44;;;12.47;97.18
9077;BME280;4574;51.072;17.174;2023-04-25T09:14:29;99290.25;;;12.43;96.30
9077;BME280;4574;51.072;17.174;2023-04-25T09:17:02;99293.19;;;12.48;96.40
9077;BME280;4574;51.072;17.174;2023-04-25T09:19:32;99288.44;;;12.43;96.96
9077;BME280;4574;51.072;17.174;2023-04-25T09:22:08;99286.16;;;12.40;96.61
9077;BME280;4574;51.072;17.174;2023-04-25T09:24:37;99291.75;;;12.45;96.13
9077;BME280;4574;51.072;17.174;2023-04-25T09:27:07;99276.28;;;12.63;96.88
9077;BME280;4574;51.072;17.174;2023-04-25T09:29:39;99277.47;;;12.75;95.37
9077;BME280;4574;51.072;17.174;2023-04-25T09:32:15;99278.31;;;12.76;95.74
9077;BME280;4574;51.072;17.174;2023-04-25T09:34:46;99280.84;;;12.69;91.33
9077;BME280;4574;51.072;17.174;2023-04-25T09:37:20;99277.47;;;12.75;90.58
9077;BME280;4574;51.072;17.174;2023-04-25T09:39:53;99270.25;;;12.98;90.82
9077;BME280;4574;51.072;17.174;2023-04-25T09:42:22;99277.91;;;13.22;88.52
9077;BME280;4574;51.072;17.174;2023-04-25T09:44:53;99265.63;;;13.36;87.69
9077;BME280;4574;51.072;17.174;2023-04-25T09:47:25;99260.56;;;13.40;86.48
9077;BME280;4574;51.072;17.174;2023-04-25T09:49:55;99277.31;;;13.41;88.90
9077;BME280;4574;51.072;17.174;2023-04-25T09:52:24;99270.34;;;13.40;88.59
9077;BME280;4574;51.072;17.174;2023-04-25T09:54:53;99276.28;;;13.21;82.57
9077;BME280;4574;51.072;17.174;2023-04-25T09:57:23;99276.84;;;13.02;81.24
9077;BME280;4574;51.072;17.174;2023-04-25T09:59:53;99271.47;;;12.96;82.69
9077;BME280;4574;51.072;17.174;2023-04-25T10:02:24;99278.13;;;12.77;81.96
9077;BME280;4574;51.072;17.174;2023-04-25T10:04:54;99281.50;;;12.71;81.65
9077;BME280;4574;51.072;17.174;2023-04-25T10:07:25;99289.47;;;12.71;85.54
9077;BME280;4574;51.072;17.174;2023-04-25T10:09:59;99291.03;;;12.80;86.30
9077;BME280;4574;51.072;17.174;2023-04-25T10:12:29;99295.16;;;12.68;87.01
9077;BME280;4574;51.072;17.174;2023-04-25T10:14:58;99290.75;;;12.75;87.45
9077;BME280;4574;51.072;17.174;2023-04-25T10:17:28;99303.88;;;12.77;88.04
9077;BME280;4574;51.072;17.174;2023-04-25T10:19:57;99297.06;;;12.74;87.81
9077;BME280;4574;51.072;17.174;2023-04-25T10:22:31;99291.13;;;12.72;88.04
9077;BME280;4574;51.072;17.174;2023-04-25T10:25:01;99280.78;;;12.77;87.47
9077;BME280;4574;51.072;17.174;2023-04-25T10:27:32;99290.22;;;12.94;88.61
9077;BME280;4574;51.072;17.174;2023-04-25T10:30:01;99288.13;;;13.04;85.35
9077;BME280;4574;51.072;17.174;2023-04-25T10:32:33;99284.72;;;13.10;83.78
9077;BME280;4574;51.072;17.174;2023-04-25T10:35:13;99284.50;;;13.26;82.70
9077;BME280;4574;51.072;17.174;2023-04-25T10:37:59;99294.22;;;13.19;81.49
9077;BME280;4574;51.072;17.174;2023-04-25T10:40:28;99289.22;;;13.10;81.08
9077;BME280;4574;51.072;17.174;2023-04-25T10:46:13;99289.75;;;13.20;80.21
9077;BME280;4574;51.072;17.174;2023-04-25T10:48:51;99283.69;;;13.26;81.36
9077;BME280;4574;51.072;17.174;2023-04-25T10:51:21;99281.38;;;13.37;82.09
9077;BME280;4574;51.072;17.174;2023-04-25T10:54:01;99280.25;;;13.46;82.42
9077;BME280;4574;51.072;17.174;2023-04-25T10:56:31;99285.78;;;13.30;81.64
9077;BME280;4574;51.072;17.174;2023-04-25T10:59:08;99277.84;;;13.16;79.98
9077;BME280;4574;51.072;17.174;2023-04-25T11:01:39;99277.38;;;13.12;78.32
9077;BME280;4574;51.072;17.174;2023-04-25T11:04:21;99280.69;;;13.14;78.89
9077;BME280;4574;51.072;17.174;2023-04-25T11:07:02;99275.72;;;13.26;80.67
9077;BME280;4574;51.072;17.174;2023-04-25T11:09:34;99273.22;;;13.38;77.94
9077;BME280;4574;51.072;17.174;2023-04-25T11:12:04;99261.88;;;13.30;76.07
9077;BME280;4574;51.072;17.174;2023-04-25T11:14:33;99256.91;;;13.27;77.53
9077;BME280;4574;51.072;17.174;2023-04-25T11:17:02;99275.91;;;13.24;76.94
9077;BME280;4574;51.072;17.174;2023-04-25T11:19:34;99251.72;;;13.19;77.63
9077;BME280;4574;51.072;17.174;2023-04-25T11:22:03;99262.13;;;13.35;78.09
9077;BME280;4574;51.072;17.174;2023-04-25T11:24:33;99266.31;;;13.44;78.71
9077;BME280;4574;51.072;17.174;2023-04-25T11:27:04;99276.38;;;13.63;79.70
9077;BME280;4574;51.072;17.174;2023-04-25T11:29:34;99267.56;;;13.62;76.00
9077;BME280;4574;51.072;17.174;2023-04-25T11:32:04;99273.41;;;13.58;76.06
9077;BME280;4574;51.072;17.174;2023-04-25T11:34:35;99271.50;;;13.52;75.30
9077;BME280;4574;51.072;17.174;2023-04-25T11:37:04;99273.53;;;13.50;76.94
9077;BME280;4574;51.072;17.174;2023-04-25T11:39:33;99271.63;;;13.44;76.03
9077;BME280;4574;51.072;17.174;2023-04-25T11:42:04;99272.47;;;13.44;76.95
9077;BME280;4574;51.072;17.174;2023-04-25T11:44:40;99272.53;;;13.51;77.23
9077;BME280;4574;51.072;17.174;2023-04-25T11:47:08;99279.56;;;13.58;78.11
9077;BME280;4574;51.072;17.174;2023-04-25T11:49:39;99278.22;;;13.48;76.52
9077;BME280;4574;51.072;17.174;2023-04-25T11:52:07;99271.56;;;13.38;76.89
9077;BME280;4574;51.072;17.174;2023-04-25T11:54:36;99279.44;;;13.45;75.90
9077;BME280;4574;51.072;17.174;2023-04-25T11:57:05;99272.09;;;13.47;76.62
9077;BME280;4574;51.072;17.174;2023-04-25T11:59:35;99267.91;;;13.38;72.93
9077;BME280;4574;51.072;17.174;2023-04-25T12:02:03;99270.72;;;13.37;72.41
9077;BME280;4574;51.072;17.174;2023-04-25T12:04:33;99267.59;;;13.48;72.59
9077;BME280;4574;51.072;17.174;2023-04-25T12:07:04;99268.56;;;13.82;74.36
9077;BME280;4574;51.072;17.174;2023-04-25T12:09:33;99269.91;;;14.14;70.39
9077;BME280;4574;51.072;17.174;2023-04-25T12:12:02;99269.44;;;14.10;68.43
9077;BME280;4574;51.072;17.174;2023-04-25T12:14:32;99276.69;;;14.16;67.85
9077;BME280;4574;51.072;17.174;2023-04-25T12:17:03;99277.75;;;14.01;67.56
9077;BME280;4574;51.072;17.174;2023-04-25T12:19:36;99272.97;;;13.90;68.24
9077;BME280;4574;51.072;17.174;2023-04-25T12:22:20;99273.84;;;13.97;70.18
9077;BME280;4574;51.072;17.174;2023-04-25T12:24:49;99277.91;;;13.93;70.47
9077;BME280;4574;51.072;17.174;2023-04-25T12:27:20;99272.97;;;13.90;70.77
9077;BME280;4574;51.072;17.174;2023-04-25T12:29:53;99280.69;;;13.85;70.41
9077;BME280;4574;51.072;17.174;2023-04-25T12:32:22;99278.53;;;13.95;72.52
9077;BME280;4574;51.072;17.174;2023-04-25T12:34:52;99283.09;;;13.80;71.46
9077;BME280;4574;51.072;17.174;2023-04-25T12:37:22;99287.53;;;13.73;73.01
9077;BME280;4574;51.072;17.174;2023-04-25T12:39:50;99289.09;;;13.67;72.50
9077;BME280;4574;51.072;17.174;2023-04-25T12:42:19;99291.31;;;13.64;71.18
9077;BME280;4574;51.072;17.174;2023-04-25T12:44:48;99290.81;;;13.75;72.44
9077;BME280;4574;51.072;17.174;2023-04-25T12:47:16;99289.53;;;13.71;71.17
9077;BME280;4574;51.072;17.174;2023-04-25T12:49:45;99279.41;;;13.81;71.47
9077;BME280;4574;51.072;17.174;2023-04-25T12:52:14;99277.50;;;13.96;71.38
9077;BME280;4574;51.072;17.174;2023-04-25T12:54:44;99279.66;;;14.07;72.01
9077;BME280;4574;51.072;17.174;2023-04-25T12:57:13;99288.19;;;14.17;71.18
9077;BME280;4574;51.072;17.174;2023-04-25T12:59:41;99280.69;;;14.27;71.47
9077;BME280;4574;51.072;17.174;2023-04-25T13:02:10;99284.34;;;14.26;70.31
9077;BME280;4574;51.072;17.174;2023-04-25T13:04:39;99277.03;;;14.13;69.13
9077;BME280;4574;51.072;17.174;2023-04-25T13:07:08;99280.44;;;14.01;70.71
9077;BME280;4574;51.072;17.174;2023-04-25T13:09:36;99278.16;;;13.77;70.75
9077;BME280;4574;51.072;17.174;2023-04-25T13:12:06;99282.13;;;13.87;71.28
9077;BME280;4574;51.072;17.174;2023-04-25T13:14:35;99280.94;;;13.90;71.05
9077;BME280;4574;51.072;17.174;2023-04-25T13:17:04;99286.00;;;13.85;72.95
9077;BME280;4574;51.072;17.174;2023-04-25T13:19:33;99277.91;;;13.72;71.44
9077;BME280;4574;51.072;17.174;2023-04-25T13:22:02;99285.13;;;13.78;72.39
9077;BME280;4574;51.072;17.174;2023-04-25T13:24:31;99280.56;;;13.93;72.61
9077;BME280;4574;51.072;17.174;2023-04-25T13:27:00;99286.50;;;13.95;72.77